createdAt,value
2019-01-11T00:01:56.612Z,7.30
2019-01-11T00:04:26.734Z,7.31
2019-01-11T00:06:57.790Z,7.35
2019-01-11T00:09:27.502Z,7.31
2019-01-11T00:11:57.305Z,7.34
2019-01-11T00:14:27.160Z,7.28
2019-01-11T00:16:56.832Z,7.32
2019-01-11T00:19:26.671Z,7.37
2019-01-11T00:21:56.384Z,7.50
2019-01-11T00:24:26.386Z,7.49
2019-01-11T00:26:56.183Z,7.62
2019-01-11T00:29:25.942Z,7.65
2019-01-11T00:31:55.706Z,7.66
2019-01-11T00:34:25.421Z,7.74
2019-01-11T00:36:55.281Z,7.70
2019-01-11T00:39:25.039Z,7.75
2019-01-11T00:41:54.878Z,7.69
2019-01-11T00:44:24.836Z,7.65
2019-01-11T00:46:54.702Z,7.54
2019-01-11T00:49:24.718Z,7.46
2019-01-11T00:51:54.579Z,7.49
2019-01-11T00:54:24.561Z,7.48
2019-01-11T00:56:54.468Z,7.50
2019-01-11T00:59:24.327Z,7.47
2019-01-11T01:01:54.321Z,7.44
2019-01-11T01:04:24.138Z,7.41
2019-01-11T01:06:55.409Z,7.48
2019-01-11T01:09:25.435Z,7.39
2019-01-11T01:11:55.323Z,7.43
2019-01-11T01:14:25.215Z,7.39
2019-01-11T01:16:55.308Z,7.28
2019-01-11T01:19:25.378Z,7.27
2019-01-11T01:21:55.290Z,7.20
2019-01-11T01:24:25.178Z,7.17
2019-01-11T01:26:55.152Z,7.18
2019-01-11T01:29:25.004Z,7.05
2019-01-11T01:31:55.022Z,6.93
2019-01-11T01:34:24.725Z,6.85
2019-01-11T01:36:54.426Z,6.81
2019-01-11T01:39:24.388Z,6.70
2019-01-11T01:41:54.250Z,6.54
2019-01-11T01:44:24.121Z,6.34
2019-01-11T01:46:53.878Z,6.05
2019-01-11T01:49:26.692Z,5.94
2019-01-11T01:51:55.309Z,5.65
2019-01-11T01:54:25.158Z,5.45
2019-01-11T01:56:55.027Z,5.23
2019-01-11T01:59:25.126Z,5.29
2019-01-11T02:01:55.844Z,5.34
2019-01-11T02:04:25.649Z,5.51
2019-01-11T02:06:55.599Z,5.59
2019-01-11T02:09:25.471Z,5.62
2019-01-11T02:11:55.395Z,5.63
2019-01-11T02:14:25.367Z,5.61
2019-01-11T02:16:55.238Z,5.66
2019-01-11T02:19:25.139Z,5.72
2019-01-11T02:21:54.858Z,5.79
2019-01-11T02:24:24.684Z,5.81
2019-01-11T02:26:54.401Z,5.79
2019-01-11T02:29:24.276Z,5.81
2019-01-11T02:31:54.284Z,5.82
2019-01-11T02:34:24.031Z,5.84
2019-01-11T02:36:54.008Z,5.86
2019-01-11T02:39:23.920Z,5.97
2019-01-11T02:41:55.196Z,5.99
2019-01-11T02:44:25.058Z,6.02
2019-01-11T02:46:54.814Z,5.96
2019-01-11T02:49:24.766Z,5.91
2019-01-11T02:51:54.436Z,5.84
2019-01-11T02:54:24.349Z,5.80
2019-01-11T02:56:54.319Z,5.72
2019-01-11T02:59:24.128Z,5.58
2019-01-11T03:01:53.785Z,5.59
2019-01-11T03:04:23.939Z,5.58
2019-01-11T03:06:53.660Z,5.53
2019-01-11T03:09:23.860Z,5.43
2019-01-11T03:11:53.829Z,5.27
2019-01-11T03:14:23.607Z,5.17
2019-01-11T03:16:53.511Z,5.09
2019-01-11T03:19:23.448Z,5.03
2019-01-11T03:21:53.220Z,5.00
2019-01-11T03:24:22.956Z,5.03
2019-01-11T03:26:53.198Z,4.98
2019-01-11T03:29:22.884Z,4.99
2019-01-11T03:31:52.691Z,4.98
2019-01-11T03:34:22.624Z,4.99
2019-01-11T03:36:52.410Z,4.99
2019-01-11T03:39:22.348Z,5.01
2019-01-11T03:42:19.887Z,4.94
2019-01-11T03:44:49.636Z,4.91
2019-01-11T03:47:19.498Z,4.89
2019-01-11T03:49:54.823Z,4.82
2019-01-11T03:52:21.177Z,4.66
2019-01-11T03:54:51.011Z,4.54
2019-01-11T03:57:20.863Z,4.19
2019-01-11T03:59:50.676Z,3.97
2019-01-11T04:02:20.846Z,3.85
2019-01-11T04:04:50.710Z,3.74
2019-01-11T04:07:20.542Z,3.80
2019-01-11T04:09:50.305Z,3.83
2019-01-11T04:12:19.956Z,3.88
2019-01-11T04:14:49.833Z,3.89
2019-01-11T04:17:19.595Z,3.87
2019-01-11T04:19:49.451Z,3.92
2019-01-11T04:22:26.949Z,4.13
2019-01-11T04:25:16.050Z,4.25
2019-01-11T04:27:45.997Z,4.22
2019-01-11T04:30:18.807Z,4.16
2019-01-11T04:32:48.575Z,4.11
2019-01-11T04:35:20.235Z,4.07
2019-01-11T04:37:50.383Z,4.07
2019-01-11T04:40:20.677Z,4.02
2019-01-11T04:42:50.618Z,3.99
2019-01-11T04:45:20.475Z,3.96
2019-01-11T04:47:50.259Z,3.91
2019-01-11T04:50:20.479Z,3.90
2019-01-11T04:52:50.560Z,3.86
2019-01-11T04:55:20.696Z,3.81
2019-01-11T04:57:50.411Z,3.75
2019-01-11T05:00:22.265Z,3.74
2019-01-11T05:02:52.428Z,3.71
2019-01-11T05:05:22.377Z,3.70
2019-01-11T05:07:52.205Z,3.71
2019-01-11T05:10:22.090Z,3.71
2019-01-11T05:12:52.089Z,3.70
2019-01-11T05:15:21.944Z,3.62
2019-01-11T05:17:51.892Z,3.57
2019-01-11T05:20:21.697Z,3.52
2019-01-11T05:22:51.708Z,3.47
2019-01-11T05:25:21.611Z,3.45
2019-01-11T05:27:51.580Z,3.40
2019-01-11T05:30:21.768Z,3.34
2019-01-11T05:32:53.782Z,3.27
2019-01-11T05:35:23.969Z,3.23
2019-01-11T05:37:53.771Z,3.20
2019-01-11T05:40:23.695Z,3.16
2019-01-11T05:42:53.606Z,3.17
2019-01-11T05:45:24.005Z,3.19
2019-01-11T05:47:54.139Z,3.27
2019-01-11T05:50:24.554Z,3.27
2019-01-11T05:52:54.392Z,3.35
2019-01-11T05:55:52.296Z,3.31
2019-01-11T05:58:38.808Z,3.37
2019-01-11T06:01:08.780Z,3.52
2019-01-11T06:03:38.748Z,3.53
2019-01-11T06:06:09.770Z,3.46
2019-01-11T06:08:39.993Z,3.33
2019-01-11T06:11:10.207Z,3.19
2019-01-11T06:13:40.012Z,3.05
2019-01-11T06:16:11.476Z,2.99
2019-01-11T06:18:41.403Z,3.05
2019-01-11T06:21:11.179Z,3.00
2019-01-11T06:23:41.237Z,2.98
2019-01-11T06:26:11.066Z,2.91
2019-01-11T06:28:40.933Z,2.84
2019-01-11T06:31:10.871Z,2.75
2019-01-11T06:33:41.640Z,2.67
2019-01-11T06:36:11.403Z,2.68
2019-01-11T06:38:41.199Z,2.68
2019-01-11T06:41:11.134Z,2.69
2019-01-11T06:43:41.136Z,2.77
2019-01-11T06:46:11.042Z,2.77
2019-01-11T06:48:44.099Z,2.81
2019-01-11T06:51:14.100Z,2.88
2019-01-11T06:53:44.063Z,3.00
2019-01-11T06:56:14.045Z,3.02
2019-01-11T06:58:43.819Z,3.08
2019-01-11T07:01:13.637Z,3.12
2019-01-11T07:03:43.696Z,3.13
2019-01-11T07:06:13.686Z,3.18
2019-01-11T07:08:43.788Z,3.16
2019-01-11T07:11:14.874Z,3.20
2019-01-11T07:13:44.645Z,3.18
2019-01-11T07:16:14.314Z,3.21
2019-01-11T07:18:44.309Z,3.27
2019-01-11T07:21:14.093Z,3.27
2019-01-11T07:23:43.948Z,3.31
2019-01-11T07:26:13.845Z,3.41
2019-01-11T07:28:43.742Z,3.38
2019-01-11T07:31:20.880Z,3.44
2019-01-11T07:33:50.552Z,3.49
2019-01-11T07:36:35.252Z,3.47
2019-01-11T07:39:20.659Z,3.46
2019-01-11T07:41:50.486Z,3.42
2019-01-11T07:44:20.226Z,3.48
2019-01-11T07:46:50.028Z,3.51
2019-01-11T07:49:23.293Z,3.46
2019-01-11T07:51:51.597Z,3.44
2019-01-11T07:54:22.069Z,3.57
2019-01-11T07:56:53.052Z,3.51
2019-01-11T07:59:23.604Z,3.78
2019-01-11T08:01:53.656Z,3.85
2019-01-11T08:04:23.447Z,4.08
2019-01-11T08:06:53.252Z,3.78
2019-01-11T08:09:23.115Z,3.76
2019-01-11T08:11:53.131Z,3.87
2019-01-11T08:14:23.002Z,3.68
2019-01-11T08:16:52.930Z,3.66
2019-01-11T08:19:22.789Z,3.64
2019-01-11T08:21:52.655Z,3.79
2019-01-11T08:24:22.458Z,3.68
2019-01-11T08:26:54.566Z,3.75
2019-01-11T08:29:24.438Z,3.89
2019-01-11T08:31:54.150Z,3.92
2019-01-11T08:34:24.188Z,3.86
2019-01-11T08:36:53.975Z,3.90
2019-01-11T08:39:23.715Z,3.88
2019-01-11T08:41:53.597Z,3.81
2019-01-11T08:44:23.353Z,3.80
2019-01-11T08:46:53.313Z,3.91
2019-01-11T08:49:24.402Z,3.81
2019-01-11T08:51:54.295Z,3.94
2019-01-11T08:54:24.082Z,3.93
2019-01-11T08:56:53.892Z,3.81
2019-01-11T08:59:23.564Z,3.86
2019-01-11T09:01:54.618Z,3.83
2019-01-11T09:04:24.399Z,3.84
2019-01-11T09:06:54.209Z,3.89
2019-01-11T09:09:24.174Z,3.82
2019-01-11T09:11:54.166Z,3.88
2019-01-11T09:14:51.921Z,3.90
2019-01-11T09:17:21.951Z,3.99
2019-01-11T09:19:51.659Z,4.26
2019-01-11T09:22:21.607Z,4.09
2019-01-11T09:24:51.375Z,4.10
2019-01-11T09:27:21.235Z,4.21
2019-01-11T09:29:51.159Z,4.22
2019-01-11T09:32:21.016Z,4.08
2019-01-11T09:34:52.145Z,4.06
2019-01-11T09:37:21.900Z,4.02
2019-01-11T09:39:51.714Z,4.19
2019-01-11T09:42:21.576Z,3.95
2019-01-11T09:44:51.549Z,4.09
2019-01-11T09:47:21.500Z,4.21
2019-01-11T09:49:51.390Z,4.60
2019-01-11T09:52:21.231Z,4.19
2019-01-11T09:54:51.340Z,4.16
2019-01-11T09:57:21.226Z,4.20
2019-01-11T09:59:51.288Z,4.03
2019-01-11T10:02:35.570Z,4.44
2019-01-11T10:05:07.074Z,4.27
2019-01-11T10:07:37.188Z,4.45
2019-01-11T10:10:09.892Z,4.83
2019-01-11T10:12:39.885Z,4.99
2019-01-11T10:15:11.041Z,4.45
2019-01-11T10:17:40.997Z,4.87
2019-01-11T10:20:11.553Z,4.72
2019-01-11T10:22:41.593Z,4.57
2019-01-11T10:25:11.544Z,4.51
2019-01-11T10:27:41.297Z,4.70
2019-01-11T10:30:13.998Z,4.90
2019-01-11T10:32:44.465Z,4.93
2019-01-11T10:35:14.449Z,4.97
2019-01-11T10:37:44.283Z,4.86
2019-01-11T10:40:16.463Z,4.73
2019-01-11T10:42:46.516Z,4.51
2019-01-11T10:45:18.784Z,4.05
2019-01-11T10:47:48.768Z,4.31
2019-01-11T10:50:18.668Z,4.43
2019-01-11T10:52:48.536Z,4.67
2019-01-11T10:55:18.819Z,4.78
2019-01-11T10:57:49.434Z,4.70
2019-01-11T11:00:29.720Z,4.34
2019-01-11T11:03:00.027Z,4.60
2019-01-11T11:05:29.904Z,4.48
2019-01-11T11:07:59.664Z,4.77
2019-01-11T11:10:29.516Z,4.38
2019-01-11T11:12:59.271Z,4.67
2019-01-11T11:15:29.219Z,4.68
2019-01-11T11:17:59.087Z,4.53
2019-01-11T11:20:28.927Z,4.41
2019-01-11T11:22:58.762Z,4.65
2019-01-11T11:25:30.077Z,4.32
2019-01-11T11:27:59.904Z,4.45
2019-01-11T11:30:29.742Z,4.48
2019-01-11T11:33:00.463Z,4.29
2019-01-11T11:35:31.054Z,4.20
2019-01-11T11:38:00.782Z,4.15
2019-01-11T11:40:31.542Z,4.42
2019-01-11T11:43:04.133Z,4.43
2019-01-11T11:45:34.042Z,4.61
2019-01-11T11:48:03.945Z,4.18
2019-01-11T11:50:33.740Z,4.20
2019-01-11T11:53:03.738Z,4.14
2019-01-11T11:55:33.692Z,4.11
2019-01-11T11:58:03.490Z,4.20
2019-01-11T12:00:33.458Z,4.19
2019-01-11T12:03:03.231Z,4.36
2019-01-11T12:05:32.984Z,4.29
2019-01-11T12:08:03.997Z,4.45
2019-01-11T12:10:33.790Z,4.57
2019-01-11T12:13:03.616Z,4.17
2019-01-11T12:15:33.752Z,4.31
2019-01-11T12:18:03.667Z,4.29
2019-01-11T12:20:34.259Z,4.23
2019-01-11T12:23:04.254Z,4.43
2019-01-11T12:25:33.962Z,4.26
2019-01-11T12:28:03.631Z,4.23
2019-01-11T12:30:33.554Z,4.04
2019-01-11T12:33:03.422Z,4.06
2019-01-11T12:35:33.060Z,4.12
2019-01-11T12:38:04.229Z,4.06
2019-01-11T12:40:34.249Z,4.10
2019-01-11T12:43:04.037Z,4.09
2019-01-11T12:45:34.028Z,3.99
2019-01-11T12:48:04.096Z,4.03
2019-01-11T12:50:33.898Z,4.08
2019-01-11T12:53:06.349Z,4.43
2019-01-11T12:55:35.988Z,4.05
2019-01-11T12:58:05.919Z,4.08
2019-01-11T13:00:36.403Z,4.41
2019-01-11T13:03:06.145Z,4.29
2019-01-11T13:05:36.069Z,4.49
2019-01-11T13:08:06.016Z,4.20
2019-01-11T13:10:35.712Z,4.11
2019-01-11T13:13:05.413Z,4.05
2019-01-11T13:15:35.296Z,4.24
2019-01-11T13:18:05.143Z,4.05
2019-01-11T13:20:34.858Z,3.99
2019-01-11T13:23:06.523Z,4.02
2019-01-11T13:25:36.410Z,4.17
2019-01-11T13:28:06.126Z,4.21
2019-01-11T13:30:35.970Z,4.05
2019-01-11T13:33:05.968Z,4.16
2019-01-11T13:35:35.776Z,4.28
2019-01-11T13:38:06.936Z,4.39
2019-01-11T13:40:36.835Z,4.36
2019-01-11T13:43:06.747Z,4.06
2019-01-11T13:45:36.717Z,4.30
2019-01-11T13:48:07.766Z,4.06
2019-01-11T13:50:42.141Z,4.02
2019-01-11T13:53:20.070Z,3.91
2019-01-11T13:55:49.962Z,3.94
2019-01-11T13:58:19.764Z,3.92
2019-01-11T14:00:49.720Z,4.08
2019-01-11T14:03:19.509Z,3.97
2019-01-11T14:05:49.404Z,3.97
2019-01-11T14:08:20.480Z,4.10
2019-01-11T14:10:50.295Z,4.09
2019-01-11T14:13:20.097Z,3.97
2019-01-11T14:15:50.177Z,3.71
2019-01-11T14:18:20.038Z,3.66
2019-01-11T14:20:49.840Z,3.67
2019-01-11T14:23:19.790Z,3.69
2019-01-11T14:25:49.565Z,3.61
2019-01-11T14:28:19.385Z,3.46
2019-01-11T14:30:49.355Z,3.39
2019-01-11T14:33:19.201Z,3.51
2019-01-11T14:35:49.062Z,3.27
2019-01-11T14:38:19.005Z,3.21
2019-01-11T14:40:48.673Z,3.24
2019-01-11T14:43:18.478Z,3.09
2019-01-11T14:45:49.628Z,3.16
2019-01-11T14:48:19.537Z,3.22
2019-01-11T14:50:49.333Z,3.20
2019-01-11T14:53:18.996Z,3.00
2019-01-11T14:55:48.667Z,2.95
2019-01-11T14:58:19.322Z,2.83
2019-01-11T15:00:49.290Z,2.79
2019-01-11T15:03:19.036Z,2.77
2019-01-11T15:05:48.964Z,2.75
2019-01-11T15:08:18.865Z,2.69
2019-01-11T15:10:48.796Z,2.73
2019-01-11T15:13:18.711Z,2.64
2019-01-11T15:15:48.403Z,2.59
2019-01-11T15:18:18.318Z,2.51
2019-01-11T15:20:48.391Z,2.53
2019-01-11T15:23:18.206Z,2.58
2019-01-11T15:25:48.071Z,2.67
2019-01-11T15:28:17.975Z,2.80
2019-01-11T15:30:47.812Z,2.81
2019-01-11T15:33:17.573Z,2.77
2019-01-11T15:35:48.586Z,2.73
2019-01-11T15:38:18.612Z,2.64
2019-01-11T15:40:48.516Z,2.58
2019-01-11T15:43:18.390Z,2.57
2019-01-11T15:45:48.216Z,2.66
2019-01-11T15:48:20.553Z,2.57
2019-01-11T15:50:57.999Z,2.54
2019-01-11T15:53:35.655Z,2.68
2019-01-11T15:56:06.850Z,2.65
2019-01-11T15:58:36.649Z,2.62
2019-01-11T16:01:07.124Z,2.61
2019-01-11T16:03:37.014Z,2.68
2019-01-11T16:06:31.893Z,2.73
2019-01-11T16:10:02.046Z,2.85
2019-01-11T16:12:44.673Z,3.05
2019-01-11T16:15:46.895Z,2.79
2019-01-11T16:18:26.219Z,2.82
2019-01-11T16:20:56.080Z,2.88
2019-01-11T16:23:25.891Z,2.77
2019-01-11T16:25:56.959Z,2.77
2019-01-11T16:28:26.675Z,2.79
2019-01-11T16:30:56.395Z,2.61
2019-01-11T16:33:26.261Z,2.56
2019-01-11T16:35:56.061Z,2.62
2019-01-11T16:38:25.928Z,2.82
2019-01-11T16:40:55.728Z,2.64
2019-01-11T16:43:25.819Z,2.60
2019-01-11T16:45:55.669Z,2.59
2019-01-11T16:48:25.479Z,2.51
2019-01-11T16:50:55.499Z,2.52
2019-01-11T16:53:25.702Z,2.52
2019-01-11T16:55:55.687Z,2.56
2019-01-11T16:58:25.367Z,2.64
2019-01-11T17:00:55.281Z,2.74
2019-01-11T17:03:25.217Z,2.83
2019-01-11T17:05:55.068Z,2.80
2019-01-11T17:08:24.805Z,2.88
2019-01-11T17:10:54.693Z,2.91
2019-01-11T17:13:24.493Z,2.64
2019-01-11T17:15:54.374Z,2.70
2019-01-11T17:18:24.260Z,2.80
2019-01-11T17:20:54.451Z,3.00
2019-01-11T17:23:24.212Z,3.00
2019-01-11T17:25:54.142Z,2.97
2019-01-11T17:28:24.170Z,2.94
2019-01-11T17:30:54.407Z,3.01
2019-01-11T17:33:24.318Z,3.06
2019-01-11T17:35:53.953Z,2.87
2019-01-11T17:38:23.709Z,2.85
2019-01-11T17:40:53.800Z,2.68
2019-01-11T17:43:23.544Z,2.78
2019-01-11T17:45:53.481Z,2.79
2019-01-11T17:48:23.375Z,2.90
2019-01-11T17:50:53.094Z,2.99
2019-01-11T17:53:22.852Z,2.95
2019-01-11T17:55:52.633Z,2.79
2019-01-11T17:58:22.602Z,2.64
2019-01-11T18:00:54.538Z,2.67
2019-01-11T18:03:25.366Z,2.71
2019-01-11T18:05:55.419Z,2.74
2019-01-11T18:08:25.606Z,2.95
2019-01-11T18:10:55.303Z,3.02
2019-01-11T18:13:25.386Z,3.00
2019-01-11T18:15:55.320Z,3.00
2019-01-11T18:18:25.158Z,3.02
2019-01-11T18:20:56.259Z,3.05
2019-01-11T18:23:25.939Z,3.01
2019-01-11T18:25:55.882Z,2.91
2019-01-11T18:28:26.924Z,2.85
2019-01-11T18:30:56.927Z,2.83
2019-01-11T18:33:27.025Z,2.75
2019-01-11T18:35:58.280Z,2.73
2019-01-11T18:38:28.108Z,2.61
2019-01-11T18:40:57.919Z,2.54
2019-01-11T18:43:28.196Z,2.49
2019-01-11T18:45:57.849Z,2.44
2019-01-11T18:48:27.973Z,2.38
2019-01-11T18:50:58.068Z,2.32
2019-01-11T18:53:27.798Z,2.30
2019-01-11T18:55:57.748Z,2.27
2019-01-11T18:58:27.648Z,2.19
2019-01-11T19:00:57.481Z,2.16
2019-01-11T19:03:27.295Z,2.27
2019-01-11T19:05:57.308Z,2.29
2019-01-11T19:08:27.126Z,2.41
2019-01-11T19:10:57.269Z,2.41
2019-01-11T19:13:27.052Z,2.50
2019-01-11T19:15:56.752Z,2.45
2019-01-11T19:18:27.731Z,2.46
2019-01-11T19:20:57.693Z,2.27
2019-01-11T19:23:27.449Z,2.11
2019-01-11T19:25:57.347Z,2.03
2019-01-11T19:28:28.719Z,1.84
2019-01-11T19:30:58.635Z,1.78
2019-01-11T19:33:28.463Z,1.88
2019-01-11T19:35:58.572Z,1.84
2019-01-11T19:38:28.552Z,1.84
2019-01-11T19:40:58.499Z,1.82
2019-01-11T19:43:28.230Z,1.74
2019-01-11T19:45:58.000Z,1.64
2019-01-11T19:48:27.934Z,1.59
2019-01-11T19:50:57.784Z,1.59
2019-01-11T19:53:27.917Z,1.42
2019-01-11T19:55:58.928Z,1.31
2019-01-11T19:58:30.173Z,1.29
2019-01-11T20:01:00.012Z,1.31
2019-01-11T20:03:29.879Z,1.38
2019-01-11T20:05:59.629Z,1.36
2019-01-11T20:08:29.410Z,1.21
2019-01-11T20:10:59.577Z,1.17
2019-01-11T20:13:29.466Z,1.09
2019-01-11T20:16:00.077Z,1.00
2019-01-11T20:18:32.344Z,0.72
2019-01-11T20:21:02.260Z,0.67
2019-01-11T20:23:36.599Z,0.58
2019-01-11T20:26:04.985Z,0.56
2019-01-11T20:28:34.775Z,0.62
2019-01-11T20:31:05.032Z,0.85
2019-01-11T20:33:36.191Z,0.89
2019-01-11T20:36:06.405Z,0.95
2019-01-11T20:38:36.281Z,1.02
2019-01-11T20:41:06.281Z,1.01
2019-01-11T20:43:37.510Z,0.97
2019-01-11T20:46:07.276Z,1.00
2019-01-11T20:48:37.194Z,0.92
2019-01-11T20:51:07.121Z,0.96
2019-01-11T20:53:41.621Z,1.06
2019-01-11T20:56:08.527Z,1.05
2019-01-11T20:58:38.292Z,1.19
2019-01-11T21:01:08.390Z,1.21
2019-01-11T21:03:38.261Z,1.20
2019-01-11T21:06:08.053Z,1.28
2019-01-11T21:08:37.973Z,1.43
2019-01-11T21:11:07.948Z,1.36
2019-01-11T21:13:37.867Z,1.37
2019-01-11T21:16:07.580Z,1.42
2019-01-11T21:18:37.797Z,1.17
2019-01-11T21:21:08.052Z,1.17
2019-01-11T21:23:38.056Z,1.07
2019-01-11T21:26:08.152Z,1.15
2019-01-11T21:28:37.913Z,1.23
2019-01-11T21:31:07.707Z,1.17
2019-01-11T21:33:38.815Z,1.17
2019-01-11T21:36:08.465Z,1.28
2019-01-11T21:38:38.407Z,1.46
2019-01-11T21:41:09.771Z,1.39
2019-01-11T21:43:39.670Z,1.59
2019-01-11T21:46:09.658Z,1.57
2019-01-11T21:48:39.759Z,1.54
2019-01-11T21:51:09.513Z,1.50
2019-01-11T21:53:39.425Z,1.40
2019-01-11T21:56:09.306Z,1.19
2019-01-11T21:58:39.267Z,1.55
2019-01-11T22:01:09.078Z,1.34
2019-01-11T22:03:38.914Z,1.44
2019-01-11T22:06:08.910Z,1.28
2019-01-11T22:08:38.853Z,1.21
2019-01-11T22:11:08.548Z,1.35
2019-01-11T22:13:38.516Z,1.30
2019-01-11T22:16:09.854Z,1.43
2019-01-11T22:18:39.617Z,1.49
2019-01-11T22:21:09.601Z,1.53
2019-01-11T22:23:39.961Z,1.46
2019-01-11T22:26:09.892Z,1.40
2019-01-11T22:28:39.774Z,1.50
2019-01-11T22:31:09.621Z,1.52
2019-01-11T22:33:39.742Z,1.47
2019-01-11T22:36:09.506Z,1.62
2019-01-11T22:38:39.434Z,1.60
2019-01-11T22:41:09.546Z,1.69
2019-01-11T22:43:39.556Z,1.77
2019-01-11T22:46:09.438Z,1.79
2019-01-11T22:48:39.384Z,1.67
2019-01-11T22:51:09.210Z,1.64
2019-01-11T22:53:39.218Z,1.51
2019-01-11T22:56:09.155Z,1.45
2019-01-11T22:58:39.311Z,1.40
2019-01-11T23:01:39.046Z,1.36
2019-01-11T23:04:08.780Z,1.40
2019-01-11T23:07:02.375Z,1.30
2019-01-11T23:09:57.109Z,1.30
2019-01-11T23:12:41.268Z,1.39
2019-01-11T23:15:21.326Z,1.53
2019-01-11T23:17:57.933Z,1.62
2019-01-11T23:20:27.779Z,1.60
2019-01-11T23:22:57.688Z,1.65
2019-01-11T23:25:27.918Z,1.63
2019-01-11T23:27:58.014Z,1.58
2019-01-11T23:30:28.052Z,1.44
2019-01-11T23:32:58.892Z,1.35
2019-01-11T23:35:29.048Z,1.39
2019-01-11T23:37:58.927Z,1.53
2019-01-11T23:40:29.461Z,1.66
2019-01-11T23:42:59.322Z,1.65
2019-01-11T23:45:29.239Z,1.80
2019-01-11T23:47:59.122Z,1.74
2019-01-11T23:50:29.176Z,1.81
2019-01-11T23:52:58.882Z,1.89
2019-01-11T23:55:29.058Z,2.01
2019-01-11T23:57:58.890Z,1.98
